createdAt,value
2022-09-12T00:03:03.650Z,11.33
2022-09-12T00:08:06.607Z,11.80
2022-09-12T00:13:10.715Z,10.40
2022-09-12T00:18:16.811Z,11.63
2022-09-12T00:23:19.793Z,11.90
2022-09-12T00:28:22.718Z,12.00
2022-09-12T00:33:27.202Z,11.67
2022-09-12T00:38:30.296Z,12.33
2022-09-12T00:43:41.691Z,11.60
2022-09-12T00:48:51.495Z,12.93
2022-09-12T00:53:56.227Z,13.13
2022-09-12T00:59:03.653Z,13.77
2022-09-12T01:04:08.352Z,12.67
2022-09-12T01:09:14.444Z,12.63
2022-09-12T01:14:19.211Z,13.20
2022-09-12T01:19:54.027Z,12.03
2022-09-12T01:25:09.450Z,14.03
2022-09-12T01:30:42.695Z,13.70
2022-09-12T01:35:54.190Z,12.53
2022-09-12T01:41:03.672Z,13.00
2022-09-12T01:46:17.450Z,12.33
2022-09-12T01:51:24.772Z,12.97
2022-09-12T01:56:32.296Z,13.67
2022-09-12T02:01:42.048Z,13.20
2022-09-12T02:06:49.320Z,13.20
2022-09-12T02:11:56.768Z,14.77
2022-09-12T02:17:07.617Z,12.87
2022-09-12T02:22:16.631Z,11.87
2022-09-12T02:27:24.781Z,12.03
2022-09-12T02:32:36.015Z,13.13
2022-09-12T02:37:54.003Z,13.20
2022-09-12T02:42:57.542Z,12.70
2022-09-12T02:48:07.228Z,13.70
2022-09-12T02:53:11.531Z,13.23
2022-09-12T02:58:18.149Z,14.43
2022-09-12T03:03:43.272Z,13.00
2022-09-12T03:09:01.695Z,14.13
2022-09-12T03:14:18.670Z,14.07
2022-09-12T03:19:30.340Z,14.33
2022-09-12T03:24:38.530Z,16.00
2022-09-12T03:29:43.128Z,13.90
2022-09-12T03:34:47.481Z,13.37
2022-09-12T03:39:50.474Z,15.47
2022-09-12T03:44:53.393Z,16.40
2022-09-12T03:49:57.641Z,15.33
2022-09-12T03:55:00.541Z,16.07
2022-09-12T04:00:03.780Z,16.33
2022-09-12T04:05:28.117Z,15.73
2022-09-12T04:10:31.009Z,14.60
2022-09-12T04:15:33.980Z,14.70
2022-09-12T04:20:38.913Z,15.33
2022-09-12T04:25:41.932Z,14.30
2022-09-12T04:30:44.882Z,15.13
2022-09-12T04:35:50.373Z,15.80
2022-09-12T04:40:53.306Z,15.63
2022-09-12T04:45:56.393Z,16.63
2022-09-12T04:51:10.024Z,14.60
2022-09-12T04:56:13.377Z,14.80
2022-09-12T05:01:18.869Z,16.70
2022-09-12T05:06:25.338Z,16.40
2022-09-12T05:11:53.073Z,15.87
2022-09-12T05:16:53.957Z,14.77
2022-09-12T05:21:58.876Z,14.93
2022-09-12T05:27:03.423Z,15.40
2022-09-12T05:32:06.524Z,16.73
2022-09-12T05:37:10.817Z,14.27
2022-09-12T05:42:14.341Z,14.50
2022-09-12T05:47:18.087Z,16.30
2022-09-12T05:52:22.335Z,16.30
2022-09-12T05:57:25.328Z,14.37
2022-09-12T06:02:28.508Z,14.20
2022-09-12T06:07:33.043Z,15.73
2022-09-12T06:12:35.958Z,17.63
2022-09-12T06:17:38.837Z,15.57
2022-09-12T06:22:43.132Z,15.80
2022-09-12T06:27:47.558Z,16.40
2022-09-12T06:32:50.520Z,16.73
2022-09-12T06:37:54.792Z,15.90
2022-09-12T06:42:57.680Z,16.07
2022-09-12T06:48:09.367Z,17.03
2022-09-12T06:53:13.639Z,15.80
2022-09-12T06:58:16.624Z,16.87
2022-09-12T07:03:19.867Z,15.70
2022-09-12T07:08:24.406Z,17.17
2022-09-12T07:13:27.364Z,16.13
2022-09-12T07:18:31.037Z,15.50
2022-09-12T07:23:35.407Z,15.37
2022-09-12T07:28:38.453Z,17.30
2022-09-12T07:33:43.015Z,14.53
2022-09-12T07:38:47.650Z,17.27
2022-09-12T07:43:53.580Z,16.47
2022-09-12T07:48:58.609Z,17.20
2022-09-12T07:54:03.644Z,15.57
2022-09-12T07:59:06.776Z,17.23
2022-09-12T08:04:09.902Z,14.80
2022-09-12T08:09:15.513Z,15.03
2022-09-12T08:14:18.581Z,10.70
2022-09-12T08:19:22.775Z,11.40
2022-09-12T08:24:27.275Z,11.23
2022-09-12T08:29:30.227Z,10.27
2022-09-12T08:34:33.135Z,12.03
2022-09-12T08:39:37.526Z,8.40
2022-09-12T08:45:05.757Z,11.10
2022-09-12T08:50:16.453Z,9.90
2022-09-12T08:55:28.843Z,8.80
2022-09-12T09:00:40.501Z,8.27
2022-09-12T09:05:50.182Z,8.70
2022-09-12T09:11:04.576Z,6.87
2022-09-12T09:16:13.314Z,6.90
2022-09-12T09:21:24.648Z,7.60
2022-09-12T09:26:37.072Z,7.20
2022-09-12T09:31:42.549Z,6.70
2022-09-12T09:36:51.657Z,8.03
2022-09-12T09:42:10.443Z,6.30
2022-09-12T09:47:13.831Z,5.00
2022-09-12T09:52:22.184Z,5.50
2022-09-12T09:57:44.750Z,4.83
2022-09-12T10:03:02.911Z,4.10
2022-09-12T10:08:08.190Z,5.37
2022-09-12T10:13:26.353Z,5.50
2022-09-12T10:18:42.263Z,4.73
2022-09-12T10:23:46.286Z,3.00
2022-09-12T10:28:54.135Z,4.27
2022-09-12T10:34:00.970Z,4.03
2022-09-12T10:39:05.431Z,2.90
2022-09-12T10:44:16.929Z,2.80
2022-09-12T10:49:27.074Z,2.47
2022-09-12T10:54:30.216Z,2.53
2022-09-12T10:59:46.531Z,2.93
2022-09-12T11:04:56.685Z,2.93
2022-09-12T11:10:07.367Z,3.33
2022-09-12T11:15:30.680Z,3.13
2022-09-12T11:21:07.459Z,3.40
2022-09-12T11:26:24.870Z,3.47
2022-09-12T11:31:55.599Z,2.70
2022-09-12T11:37:18.042Z,3.13
2022-09-12T11:42:27.492Z,2.70
2022-09-12T11:47:35.778Z,2.50
2022-09-12T11:52:40.691Z,2.10
2022-09-12T11:57:46.870Z,2.10
2022-09-12T12:03:02.571Z,2.10
2022-09-12T12:08:06.853Z,2.40
2022-09-12T12:13:18.094Z,2.40
2022-09-12T12:18:26.585Z,2.40
2022-09-12T12:23:32.354Z,2.40
2022-09-12T12:28:58.886Z,2.10
2022-09-12T12:34:27.767Z,2.03
2022-09-12T12:40:04.977Z,1.80
2022-09-12T12:45:50.494Z,2.60
2022-09-12T12:50:54.886Z,2.40
2022-09-12T12:55:58.807Z,2.20
2022-09-12T13:01:12.068Z,2.13
2022-09-12T13:06:32.715Z,2.00
2022-09-12T13:11:38.580Z,2.07
2022-09-12T13:16:55.268Z,2.50
2022-09-12T13:22:02.572Z,2.20
2022-09-12T13:27:18.392Z,2.17
2022-09-12T13:32:21.348Z,2.40
2022-09-12T13:37:41.342Z,2.20
2022-09-12T13:50:03.609Z,2.43
2022-09-12T13:55:19.661Z,2.20
2022-09-12T14:00:22.595Z,2.40
2022-09-12T14:05:27.298Z,2.00
2022-09-12T14:10:34.983Z,2.47
2022-09-12T14:15:39.239Z,1.83
2022-09-12T14:20:42.990Z,1.83
2022-09-12T14:25:48.047Z,1.87
2022-09-12T14:31:03.079Z,1.80
2022-09-12T14:36:13.191Z,1.73
2022-09-12T14:41:25.030Z,1.80
2022-09-12T14:46:31.747Z,2.20
2022-09-12T14:51:38.373Z,2.30
2022-09-12T14:56:44.392Z,2.50
2022-09-12T15:01:47.383Z,2.30
2022-09-12T15:06:50.339Z,2.10
2022-09-12T15:11:54.908Z,2.03
2022-09-12T15:16:57.831Z,2.03
2022-09-12T15:22:00.899Z,2.20
2022-09-12T15:27:10.199Z,3.50
2022-09-12T15:32:25.174Z,2.40
2022-09-12T15:37:28.456Z,2.47
2022-09-12T15:42:32.767Z,2.30
2022-09-12T15:47:35.696Z,2.40
2022-09-12T15:52:39.233Z,2.70
2022-09-12T15:57:43.636Z,2.13
2022-09-12T16:02:47.440Z,2.30
2022-09-12T16:07:52.368Z,2.30
2022-09-12T16:12:57.100Z,2.27
2022-09-12T16:18:00.029Z,2.33
2022-09-12T16:23:02.985Z,3.20
2022-09-12T16:28:07.760Z,2.77
2022-09-12T16:33:10.706Z,2.40
2022-09-12T16:38:13.712Z,2.80
2022-09-12T16:43:18.428Z,3.70
2022-09-12T16:48:21.468Z,2.77
2022-09-12T16:53:24.441Z,3.40
2022-09-12T16:58:29.257Z,2.70
2022-09-12T17:03:32.458Z,2.13
2022-09-12T17:08:37.012Z,2.30
2022-09-12T17:14:03.094Z,2.40
2022-09-12T17:19:06.235Z,2.70
2022-09-12T17:24:09.194Z,3.30
2022-09-12T17:29:14.264Z,3.30
2022-09-12T17:34:17.923Z,3.80
2022-09-12T17:39:21.229Z,3.80
2022-09-12T17:44:25.843Z,2.87
2022-09-12T17:49:29.002Z,3.20
2022-09-12T17:54:32.031Z,2.90
2022-09-12T17:59:36.310Z,3.03
2022-09-12T18:04:39.301Z,3.30
2022-09-12T18:09:42.441Z,2.90
2022-09-12T18:14:46.862Z,3.10
2022-09-12T18:19:53.824Z,2.90
2022-09-12T18:24:56.972Z,3.17
2022-09-12T18:30:20.002Z,3.00
2022-09-12T18:35:25.587Z,4.20
2022-09-12T18:40:28.810Z,5.93
2022-09-12T18:45:33.295Z,2.90
2022-09-12T18:50:36.365Z,3.00
2022-09-12T18:55:42.465Z,2.70
2022-09-12T19:00:48.448Z,3.20
2022-09-12T19:05:51.534Z,2.87
2022-09-12T19:10:57.784Z,2.97
2022-09-12T19:16:03.254Z,3.33
2022-09-12T19:21:09.916Z,3.80
2022-09-12T19:26:14.903Z,3.37
2022-09-12T19:31:20.758Z,3.50
2022-09-12T19:41:46.896Z,3.53
2022-09-12T19:46:51.280Z,3.30
2022-09-12T19:51:54.242Z,3.50
2022-09-12T19:56:57.195Z,3.40
2022-09-12T20:02:01.589Z,3.70
2022-09-12T20:07:04.620Z,3.83
2022-09-12T20:12:08.680Z,3.53
2022-09-12T20:17:13.003Z,3.03
2022-09-12T20:22:15.900Z,3.40
2022-09-12T20:27:18.909Z,3.03
2022-09-12T20:32:23.265Z,3.40
2022-09-12T20:37:26.296Z,3.47
2022-09-12T20:42:30.326Z,3.80
2022-09-12T20:47:34.623Z,3.90
2022-09-12T20:52:37.536Z,3.80
2022-09-12T20:57:40.470Z,4.07
2022-09-12T21:02:44.811Z,3.57
2022-09-12T21:07:47.738Z,4.70
2022-09-12T21:12:50.652Z,4.13
2022-09-12T21:17:55.020Z,4.47
2022-09-12T21:22:57.950Z,4.63
2022-09-12T21:28:00.875Z,4.00
2022-09-12T21:33:05.514Z,4.30
2022-09-12T21:38:09.387Z,4.27
2022-09-12T21:43:13.259Z,4.50
2022-09-12T21:48:17.636Z,4.80
2022-09-12T21:53:20.574Z,4.13
2022-09-12T21:58:23.456Z,4.70
2022-09-12T22:03:28.448Z,4.63
2022-09-12T22:08:32.619Z,4.77
2022-09-12T22:13:35.619Z,4.60
2022-09-12T22:18:40.184Z,5.00
2022-09-12T22:24:01.014Z,5.13
2022-09-12T22:29:04.452Z,5.00
2022-09-12T22:34:08.767Z,5.03
2022-09-12T22:39:11.740Z,5.20
2022-09-12T22:44:14.777Z,4.50
2022-09-12T22:49:19.038Z,4.90
2022-09-12T22:54:21.942Z,4.97
2022-09-12T22:59:24.865Z,5.40
2022-09-12T23:04:29.156Z,4.60
2022-09-12T23:09:35.279Z,4.70
2022-09-12T23:14:38.533Z,4.90
2022-09-12T23:19:42.811Z,4.67
2022-09-12T23:24:45.929Z,4.50
2022-09-12T23:29:52.378Z,4.80
2022-09-12T23:34:56.671Z,4.10
2022-09-12T23:39:59.645Z,5.30
2022-09-12T23:45:02.610Z,4.90
2022-09-12T23:50:07.789Z,5.80
2022-09-12T23:55:10.883Z,5.30
